KEWB/EWB METAR and TAF weather

Enter ICAO airport designator
Station Type Date Time Source
KEWB METAR 2019/02/21 15:41 UTC NOAA

KEWB 211541Z 29007G15KT 10SM OVC005 02/01 A2985 RMK AO2 T00170011


Station Type Date Time Source
KEWB Decoded METAR 2019/02/21 15:41 UTC NOAA

NEW BEDFORD REGIONAL AIRPORT, MA, United States (KEWB) 41-41N 070-58W 23M
Feb 21, 2019 - 10:41 AM EST / 2019.02.21 1541 UTC
Wind: from the WNW (290 degrees) at 8 MPH (7 KT) gusting to 17 MPH (15 KT):0
Visibility: 10 mile(s):0
Sky conditions: overcast
Temperature: 35.1 F (1.7 C)
Dew Point: 34.0 F (1.1 C)
Relative Humidity: 95%
Pressure (altimeter): 29.85 in. Hg (1010 hPa)
ob: KEWB 211541Z 29007G15KT 10SM OVC005 02/01 A2985 RMK AO2 T00170011
cycle: 15

Station Type Date Time Source
KEWB TAF UTC NOAA

Error!


Example: see airport list